Terminal Aerodrome Forecast
Issued by NWS

Current Version | Previous Version | Text Only | Print | Product List | Glossary On
Versions: 1 2 3 4 5 6 7 8 9 10 11 12
815
FTUS42 TJSJ 102343
TAFKPK
TAF
TKPK 102343Z 1100/1124 09008KT P6SM FEW020
     FM111300 09012KT P6SM FEW022 FEW050
     FM112300 09008KT P6SM FEW020
      AMD NOT SKED 1102/1111=

USA.gov is the U.S. government's official web portal to all federal, state and local government web resources and services.